【羽田店】BOEING グッズ 大量入荷!!!

LUXURY FLIGHT

080-7560-1817

羽田空港本店: 所在地: 東京都大田区羽田空港3-3-2    セントレア店: 所在地: 愛知県常滑市セントレア1-1      HICityファイター店: 所在地: 東京都大田区羽田空港1-1-4
           第1旅客ターミナル5階                  FLIGHT OF DREAMS FLIGHT PARK                 HANEDA INNOVATION CITY ZONE-J 2-5
      営業時間: 10:00~20:00 定休日: 年中無休         営業時間: 10:00~20:00 定休日: 年中無休             営業時間: 10:00~20:00 定休日: 年中無休
      電話番号: 080-7560-1817                  電話番号: 080-4945-5666                     電話番号: 03-5579-7980

lv

【羽田店】BOEING グッズ 大量入荷!!!

STAFF BLOG

2019/12/04 【羽田店】BOEING グッズ 大量入荷!!!

こんばんはーーーーーー

 

大変天気が良好だった羽田周辺のMETARは…

RJTT 041030Z 36011KT 9999 FEW030 13/03 Q1018 NOSIG

RMK 1CU030 A3006

 

こんな感じでございます。

 

先日、シアトルから大量のBOEINGグッズが入荷いたしましたのでご報告いたします!!

 

img_3926

 

グッズコーナーはかなり賑やかになりました!!

 

 

img_3924

 

 

飛行機関係のおもちゃはもちろん!

 

 

img_3925

 

 

モデルプレーンも大量に入荷いたしました!!

 

どれもシアトル直販だから出来るお値段となっております!!

 

お子様や、飛行機好きのクリスマスプレゼントにぜひ!!!!

 

写真ではご紹介しきれないアイテムも各種ございますので

お気軽にお問い合わせください!!

 

皆様のご来店を心よりお待ちいたしております!!!

 

 

 

いつもブログを読んでくださり本当にありがとうございます。

 

 

「感謝」

 

 

 

 

 

 

TOP